Maple Hill, Kansas
Current Conditions -  °F | °C
As of 11:53 PM on Thursday 27 Nov 2014 (Local Time) from KFOE Reporting Station
Clear Clear  
Wind Chill: 25°   Ceiling: Unl
Heat Index: 34°   Visibility: 10mi
Dew Point: 23°   Wind: 12mph
Humidity: 64%   Direction: 160°SSE
Pressure: 30.18"   Gusts: NA
Location:  39.08°N, 96.03°W
Report Text: KFOE 280553Z AUTO 16010KT 10SM CLR 01/M05 A3018 RMK AO2 SLP230 T00111050 10017 21006 400501067 58027
Loading
Personal Weather Stations






























Interactive Weather Map New forecast layout! Learn more

10-Day Weather Forecast

Advertisements
Track Severe Weather on mobile